Tilburg, Netherlands
Current Conditions -  °F | °C
As of 8:25 AM on Wednesday 22 Oct 2014 (Local Time) from EHGR Reporting Station
Unknown Precip Unknown Precip  
Wind Chill: 42°   Ceiling: 3800
Heat Index: 46°   Visibility: 6mi
Dew Point: 43°   Wind: 8mph
Humidity: 87%   Direction: 280°W
Pressure: 30"   Gusts: NA
Location:  51.58°N, 5.06°E
Report Text: EHGR 220625Z AUTO 28007KT 9999 -UP FEW034 BKN038 BKN050 08/06 Q1016 BLU
Loading
Personal Weather Stations






























Interactive Weather Map
Tropical Storm Tracking
New forecast layout! Learn more

10-Day Weather Forecast

Advertisements
Track Severe Weather on mobile